createdAt,value
2019-04-11T00:02:27.453Z,69.90
2019-04-11T00:04:59.157Z,70.40
2019-04-11T00:07:30.128Z,70.50
2019-04-11T00:10:00.062Z,70.70
2019-04-11T00:12:30.522Z,70.90
2019-04-11T00:15:00.739Z,71.10
2019-04-11T00:17:30.798Z,71.30
2019-04-11T00:20:00.633Z,71.60
2019-04-11T00:22:30.828Z,71.70
2019-04-11T00:25:01.073Z,71.70
2019-04-11T00:27:30.946Z,72.20
2019-04-11T00:30:01.630Z,72.30
2019-04-11T00:32:31.882Z,72.50
2019-04-11T00:35:01.845Z,72.80
2019-04-11T00:37:32.753Z,72.70
2019-04-11T00:40:03.782Z,73.20
2019-04-11T00:42:36.738Z,73.50
2019-04-11T00:45:10.240Z,73.60
2019-04-11T00:47:40.106Z,74.00
2019-04-11T00:50:10.716Z,74.10
2019-04-11T00:52:41.335Z,74.10
2019-04-11T00:55:11.803Z,74.50
2019-04-11T00:57:41.735Z,74.70
2019-04-11T01:00:13.103Z,74.80
2019-04-11T01:02:44.017Z,75.10
2019-04-11T01:05:15.164Z,75.10
2019-04-11T01:07:45.274Z,75.20
2019-04-11T01:10:16.191Z,75.40
2019-04-11T01:12:46.941Z,75.60
2019-04-11T01:15:19.570Z,75.70
2019-04-11T01:17:49.735Z,75.90
2019-04-11T01:20:19.598Z,76.10
2019-04-11T01:22:50.723Z,76.40
2019-04-11T01:25:22.172Z,76.60
2019-04-11T01:27:52.182Z,76.60
2019-04-11T01:30:25.143Z,76.50
2019-04-11T01:32:56.944Z,76.60
2019-04-11T01:35:26.874Z,76.80
2019-04-11T01:37:57.756Z,77.20
2019-04-11T01:40:27.641Z,77.10
2019-04-11T01:42:57.673Z,77.30
2019-04-11T01:45:27.642Z,77.40
2019-04-11T01:48:12.274Z,77.40
2019-04-11T01:50:43.229Z,77.90
2019-04-11T01:53:13.543Z,77.80
2019-04-11T01:55:45.034Z,77.80
2019-04-11T01:58:16.222Z,78.10
2019-04-11T02:01:04.237Z,78.30
2019-04-11T02:03:45.611Z,78.40
2019-04-11T02:06:15.974Z,78.50
2019-04-11T02:08:47.176Z,78.70
2019-04-11T02:11:17.208Z,78.90
2019-04-11T02:13:48.095Z,79.00
2019-04-11T02:16:19.015Z,78.90
2019-04-11T02:18:52.073Z,79.00
2019-04-11T02:21:22.532Z,79.20
2019-04-11T02:24:03.678Z,79.30
2019-04-11T02:26:35.677Z,79.30
2019-04-11T02:29:08.881Z,79.30
2019-04-11T02:31:42.229Z,79.30
2019-04-11T02:34:13.636Z,79.40
2019-04-11T02:36:44.951Z,79.40
2019-04-11T02:39:19.286Z,79.60
2019-04-11T02:41:50.863Z,79.90
2019-04-11T02:44:46.139Z,79.90
2019-04-11T02:47:04.530Z,79.90
2019-04-11T02:49:27.935Z,80.00
2019-04-11T02:51:58.611Z,80.00
2019-04-11T02:54:30.445Z,80.10
2019-04-11T02:57:02.034Z,80.20
2019-04-11T02:59:32.330Z,80.40
2019-04-11T03:02:04.631Z,80.50
2019-04-11T03:04:39.219Z,80.60
2019-04-11T03:07:12.291Z,80.50
2019-04-11T03:09:44.008Z,80.60
2019-04-11T03:12:16.851Z,80.60
2019-04-11T03:15:05.753Z,80.90
2019-04-11T03:17:22.958Z,81.10
2019-04-11T03:20:02.721Z,81.00
2019-04-11T03:22:24.786Z,81.10
2019-04-11T03:24:55.413Z,81.30
2019-04-11T03:27:28.654Z,81.20
2019-04-11T03:30:00.027Z,81.40
2019-04-11T03:33:17.132Z,81.50
2019-04-11T03:36:00.060Z,81.60
2019-04-11T03:37:58.630Z,81.70
2019-04-11T03:40:29.093Z,81.90
2019-04-11T03:42:56.513Z,81.70
2019-04-11T03:45:33.252Z,81.80
2019-04-11T03:47:57.764Z,81.60
2019-04-11T03:50:18.949Z,81.90
2019-04-11T03:52:51.829Z,82.10
2019-04-11T03:55:23.418Z,82.20
2019-04-11T03:57:56.232Z,82.20
2019-04-11T04:00:31.428Z,82.30
2019-04-11T04:03:00.172Z,82.20
2019-04-11T04:05:34.033Z,82.50
2019-04-11T04:08:04.533Z,82.60
2019-04-11T04:10:36.405Z,82.70
2019-04-11T04:13:13.268Z,82.70
2019-04-11T04:15:59.789Z,82.80
2019-04-11T04:18:23.692Z,82.80
2019-04-11T04:20:59.626Z,83.00
2019-04-11T04:23:38.041Z,82.90
2019-04-11T04:26:10.576Z,83.80
2019-04-11T04:28:41.047Z,83.30
2019-04-11T04:31:11.730Z,83.30
2019-04-11T04:33:42.969Z,83.50
2019-04-11T04:36:13.873Z,83.40
2019-04-11T04:38:46.450Z,83.60
2019-04-11T04:41:29.806Z,83.60
2019-04-11T04:43:50.682Z,83.60
2019-04-11T04:46:36.513Z,83.70
2019-04-11T04:48:53.955Z,83.90
2019-04-11T04:51:24.619Z,83.80
2019-04-11T04:53:57.878Z,83.90
2019-04-11T04:56:32.365Z,84.00
2019-04-11T04:59:05.414Z,84.10
2019-04-11T05:01:37.173Z,84.00
2019-04-11T05:04:08.928Z,84.10
2019-04-11T05:06:46.677Z,84.40
2019-04-11T05:09:17.787Z,84.30
2019-04-11T05:11:50.899Z,84.40
2019-04-11T05:14:21.086Z,84.50
2019-04-11T05:16:52.528Z,84.50
2019-04-11T05:19:23.753Z,84.60
2019-04-11T05:21:57.571Z,84.60
2019-04-11T05:24:30.485Z,84.70
2019-04-11T05:27:00.990Z,84.90
2019-04-11T05:29:31.925Z,85.10
2019-04-11T05:32:05.188Z,85.20
2019-04-11T05:34:35.676Z,85.00
2019-04-11T05:37:11.069Z,85.30
2019-04-11T05:39:42.462Z,85.20
2019-04-11T05:42:15.883Z,85.40
2019-04-11T05:44:48.365Z,85.40
2019-04-11T05:47:25.509Z,85.70
2019-04-11T05:50:01.012Z,85.60
2019-04-11T05:52:34.171Z,85.80
2019-04-11T05:55:12.380Z,85.90
2019-04-11T05:57:44.914Z,86.00
2019-04-11T06:00:19.302Z,85.90
2019-04-11T06:02:51.219Z,85.90
2019-04-11T06:05:24.578Z,86.20
2019-04-11T06:08:05.049Z,86.20
2019-04-11T06:10:42.641Z,86.20
2019-04-11T06:13:18.565Z,86.30
2019-04-11T06:15:59.487Z,86.20
2019-04-11T06:18:43.622Z,86.20
2019-04-11T06:21:15.780Z,86.20
2019-04-11T06:23:47.721Z,86.30
2019-04-11T06:26:21.318Z,86.30
2019-04-11T06:28:55.566Z,86.30
2019-04-11T06:31:43.632Z,85.90
2019-04-11T06:34:13.567Z,85.90
2019-04-11T06:37:01.409Z,86.00
2019-04-11T06:39:35.750Z,85.40
2019-04-11T06:42:07.636Z,85.00
2019-04-11T06:44:39.775Z,84.60
2019-04-11T06:47:12.456Z,84.10
2019-04-11T06:49:50.988Z,83.70
2019-04-11T06:52:20.997Z,83.50
2019-04-11T06:55:02.590Z,83.30
2019-04-11T06:57:34.239Z,82.80
2019-04-11T07:00:07.290Z,82.30
2019-04-11T07:02:41.059Z,82.00
2019-04-11T07:05:14.205Z,81.60
2019-04-11T07:07:51.686Z,81.20
2019-04-11T07:10:22.465Z,80.90
2019-04-11T07:13:00.712Z,80.40
2019-04-11T07:15:32.655Z,79.90
2019-04-11T07:18:20.592Z,79.20
2019-04-11T07:20:52.522Z,78.10
2019-04-11T07:23:40.514Z,77.30
2019-04-11T07:26:14.746Z,77.00
2019-04-11T07:28:46.510Z,76.90
2019-04-11T07:31:21.776Z,75.60
2019-04-11T07:33:53.981Z,74.80
2019-04-11T07:36:41.525Z,74.30
2019-04-11T07:39:12.902Z,73.70
2019-04-11T07:41:45.574Z,72.40
2019-04-11T07:44:17.815Z,72.50
2019-04-11T07:46:51.932Z,72.00
2019-04-11T07:49:35.235Z,71.60
2019-04-11T07:52:09.233Z,70.90
2019-04-11T07:54:41.631Z,70.20
2019-04-11T07:57:23.384Z,69.70
2019-04-11T08:00:09.559Z,68.80
2019-04-11T08:02:57.429Z,68.40
2019-04-11T08:05:38.854Z,67.80
2019-04-11T08:08:15.420Z,67.00
2019-04-11T08:11:02.424Z,66.60
2019-04-11T08:13:34.971Z,66.00
2019-04-11T08:16:22.595Z,65.30
2019-04-11T08:18:54.131Z,64.70
2019-04-11T08:21:26.225Z,64.00
2019-04-11T08:23:58.209Z,63.70
2019-04-11T08:26:48.680Z,63.10
2019-04-11T08:29:20.199Z,62.10
2019-04-11T08:32:07.895Z,62.20
2019-04-11T08:34:41.625Z,62.00
2019-04-11T08:37:23.978Z,61.50
2019-04-11T08:39:57.612Z,61.00
2019-04-11T08:42:50.732Z,60.90
2019-04-11T08:45:23.630Z,60.90
2019-04-11T08:47:58.594Z,60.50
2019-04-11T08:50:30.228Z,60.30
2019-04-11T08:53:20.616Z,59.80
2019-04-11T08:55:56.227Z,59.50
2019-04-11T08:58:26.639Z,59.20
2019-04-11T09:01:00.819Z,58.80
2019-04-11T09:03:59.801Z,59.00
2019-04-11T09:06:32.583Z,58.80
2019-04-11T09:09:15.241Z,58.50
2019-04-11T09:11:50.944Z,58.50
2019-04-11T09:14:28.520Z,57.90
2019-04-11T09:17:01.780Z,57.90
2019-04-11T09:19:38.998Z,57.50
2019-04-11T09:22:15.144Z,57.70
2019-04-11T09:24:46.990Z,57.50
2019-04-11T09:27:24.811Z,56.90
2019-04-11T09:30:12.748Z,56.20
2019-04-11T09:32:43.052Z,56.50
2019-04-11T09:35:33.134Z,56.10
2019-04-11T09:38:08.441Z,55.80
2019-04-11T09:40:41.673Z,55.80
2019-04-11T09:43:13.135Z,55.80
2019-04-11T09:45:57.858Z,55.40
2019-04-11T09:48:40.019Z,54.70
2019-04-11T09:51:18.861Z,54.30
2019-04-11T09:53:54.750Z,53.80
2019-04-11T09:56:45.293Z,53.40
2019-04-11T09:59:33.491Z,52.50
2019-04-11T10:02:11.460Z,52.70
2019-04-11T10:04:43.797Z,52.10
2019-04-11T10:07:28.147Z,51.70
2019-04-11T10:10:05.731Z,51.70
2019-04-11T10:13:08.849Z,51.80
2019-04-11T10:15:49.928Z,49.50
2019-04-11T10:24:50.526Z,50.30
2019-04-11T10:27:26.686Z,50.70
2019-04-11T10:30:04.467Z,50.30
2019-04-11T10:32:39.197Z,50.30
2019-04-11T10:35:14.606Z,50.00
2019-04-11T10:37:49.797Z,50.00
2019-04-11T10:40:37.751Z,49.20
2019-04-11T10:43:11.855Z,48.70
2019-04-11T10:46:02.817Z,48.30
2019-04-11T10:48:47.073Z,47.80
2019-04-11T10:51:35.909Z,47.60
2019-04-11T10:54:11.798Z,47.10
2019-04-11T10:57:01.223Z,46.60
2019-04-11T10:59:36.443Z,46.80
2019-04-11T11:02:17.540Z,47.00
2019-04-11T11:05:01.281Z,47.10
2019-04-11T11:07:37.950Z,47.20
2019-04-11T11:10:15.421Z,46.50
2019-04-11T11:13:05.674Z,46.60
2019-04-11T11:15:37.885Z,44.40
2019-04-11T11:18:48.211Z,46.00
2019-04-11T11:21:07.490Z,45.70
2019-04-11T11:23:42.814Z,45.40
2019-04-11T11:26:26.130Z,45.20
2019-04-11T11:29:15.283Z,44.70
2019-04-11T11:31:52.859Z,44.00
2019-04-11T11:34:26.483Z,44.10
2019-04-11T11:37:31.245Z,44.00
2019-04-11T11:40:14.882Z,43.90
2019-04-11T11:42:56.625Z,42.40
2019-04-11T11:45:29.818Z,42.80
2019-04-11T11:48:02.752Z,43.10
2019-04-11T11:50:37.562Z,43.00
2019-04-11T11:53:26.647Z,42.80
2019-04-11T11:55:58.159Z,43.00
2019-04-11T11:58:35.340Z,43.00
2019-04-11T12:07:17.030Z,39.20
2019-04-11T12:09:57.107Z,42.10
2019-04-11T12:12:30.208Z,41.70
2019-04-11T12:15:22.260Z,41.40
2019-04-11T12:18:08.236Z,41.50
2019-04-11T12:21:00.925Z,38.60
2019-04-11T12:26:48.712Z,40.80
2019-04-11T12:29:24.226Z,40.50
2019-04-11T12:32:00.831Z,40.70
2019-04-11T12:35:08.909Z,40.40
2019-04-11T12:37:52.634Z,40.80
2019-04-11T12:40:46.694Z,40.30
2019-04-11T12:43:21.706Z,39.80
2019-04-11T12:45:58.442Z,39.80
2019-04-11T12:48:30.573Z,39.80
2019-04-11T12:51:18.497Z,39.50
2019-04-11T12:53:52.404Z,39.20
2019-04-11T12:56:26.513Z,39.10
2019-04-11T12:58:59.481Z,38.40
2019-04-11T13:01:31.034Z,38.40
2019-04-11T13:04:08.336Z,38.80
2019-04-11T13:06:58.760Z,39.10
2019-04-11T13:09:34.587Z,38.60
2019-04-11T13:12:09.565Z,39.70
2019-04-11T13:14:57.641Z,39.50
2019-04-11T13:17:31.789Z,39.40
2019-04-11T13:20:06.070Z,38.70
2019-04-11T13:22:35.950Z,38.90
2019-04-11T13:25:28.230Z,37.80
2019-04-11T13:27:59.858Z,38.20
2019-04-11T13:30:35.563Z,38.40
2019-04-11T13:33:05.800Z,37.90
2019-04-11T13:35:53.412Z,37.90
2019-04-11T13:38:24.964Z,37.50
2019-04-11T13:41:13.024Z,37.60
2019-04-11T13:43:49.899Z,36.80
2019-04-11T13:46:26.702Z,37.30
2019-04-11T13:49:04.266Z,37.90
2019-04-11T13:51:36.626Z,38.40
2019-04-11T13:54:25.697Z,38.30
2019-04-11T13:57:13.825Z,38.20
2019-04-11T14:00:01.444Z,38.50
2019-04-11T14:02:32.891Z,38.60
2019-04-11T14:05:11.744Z,38.60
2019-04-11T14:08:09.261Z,38.10
2019-04-11T14:10:44.587Z,37.40
2019-04-11T14:13:17.060Z,38.30
2019-04-11T14:15:48.472Z,38.00
2019-04-11T14:18:20.284Z,38.60
2019-04-11T14:20:54.706Z,38.60
2019-04-11T14:23:26.301Z,38.50
2019-04-11T14:29:15.222Z,38.90
2019-04-11T14:32:07.690Z,38.20
2019-04-11T14:34:44.208Z,38.70
2019-04-11T14:37:41.494Z,38.80
2019-04-11T14:40:29.474Z,38.40
2019-04-11T14:43:20.196Z,38.50
2019-04-11T14:45:54.739Z,38.90
2019-04-11T14:48:47.093Z,37.90
2019-04-11T14:51:37.188Z,38.50
2019-04-11T14:54:12.052Z,38.50
2019-04-11T14:56:53.021Z,38.90
2019-04-11T14:59:29.324Z,39.00
2019-04-11T15:02:02.984Z,38.80
2019-04-11T15:04:44.026Z,39.10
2019-04-11T15:07:16.322Z,38.90
2019-04-11T15:09:59.607Z,39.00
2019-04-11T15:12:34.450Z,38.90
2019-04-11T15:15:25.084Z,39.00
2019-04-11T15:17:56.582Z,39.20
2019-04-11T15:20:54.739Z,39.30
2019-04-11T15:23:21.108Z,39.40
2019-04-11T15:26:08.832Z,39.80
2019-04-11T15:28:52.442Z,39.70
2019-04-11T15:31:24.712Z,40.00
2019-04-11T15:34:05.250Z,40.20
2019-04-11T15:36:40.435Z,40.80
2019-04-11T15:39:28.814Z,40.90
2019-04-11T15:42:02.363Z,41.30
2019-04-11T15:44:41.843Z,41.40
2019-04-11T15:47:13.563Z,41.70
2019-04-11T15:49:50.493Z,41.70
2019-04-11T15:52:21.138Z,41.90
2019-04-11T15:55:09.079Z,41.50
2019-04-11T15:57:43.002Z,41.30
2019-04-11T16:00:20.286Z,41.70
2019-04-11T16:03:11.586Z,41.80
2019-04-11T16:05:56.579Z,42.10
2019-04-11T16:08:34.010Z,42.00
2019-04-11T16:11:23.211Z,41.90
2019-04-11T16:13:56.153Z,42.50
2019-04-11T16:16:30.234Z,42.10
2019-04-11T16:19:10.693Z,41.90
2019-04-11T16:21:45.496Z,42.10
2019-04-11T16:24:19.173Z,42.20
2019-04-11T16:27:08.904Z,42.20
2019-04-11T16:29:56.411Z,42.90
2019-04-11T16:32:29.951Z,43.20
2019-04-11T16:35:03.084Z,43.20
2019-04-11T16:37:37.114Z,43.30
2019-04-11T16:40:28.292Z,43.10
2019-04-11T16:43:10.163Z,43.30
2019-04-11T16:45:48.106Z,43.90
2019-04-11T16:48:18.262Z,44.00
2019-04-11T16:50:51.030Z,44.40
2019-04-11T16:53:23.691Z,44.50
2019-04-11T16:55:58.520Z,44.90
2019-04-11T16:58:30.771Z,45.10
2019-04-11T17:01:01.931Z,45.20
2019-04-11T17:03:31.974Z,45.30
2019-04-11T17:06:05.499Z,45.40
2019-04-11T17:08:39.694Z,45.90
2019-04-11T17:11:11.120Z,45.80
2019-04-11T17:13:42.024Z,45.80
2019-04-11T17:16:14.727Z,45.90
2019-04-11T17:18:44.660Z,46.00
2019-04-11T17:21:16.675Z,46.00
2019-04-11T17:23:47.723Z,46.40
2019-04-11T17:26:17.743Z,46.30
2019-04-11T17:28:47.656Z,46.40
2019-04-11T17:31:17.495Z,46.70
2019-04-11T17:33:48.199Z,46.50
2019-04-11T17:36:18.041Z,46.70
2019-04-11T17:38:48.351Z,46.40
2019-04-11T17:41:18.337Z,46.60
2019-04-11T17:43:51.635Z,46.90
2019-04-11T17:46:26.778Z,46.90
2019-04-11T17:48:55.776Z,46.80
2019-04-11T17:51:27.037Z,47.30
2019-04-11T17:54:01.329Z,47.30
2019-04-11T17:56:33.224Z,47.30
2019-04-11T17:59:04.532Z,47.80
2019-04-11T18:01:37.835Z,47.80
2019-04-11T18:04:08.886Z,48.00
2019-04-11T18:06:39.519Z,48.20
2019-04-11T18:09:12.102Z,48.60
2019-04-11T18:11:43.138Z,48.70
2019-04-11T18:14:12.899Z,48.90
2019-04-11T18:16:42.803Z,49.00
2019-04-11T18:19:15.265Z,49.10
2019-04-11T18:21:45.103Z,49.20
2019-04-11T18:24:15.012Z,49.60
2019-04-11T18:26:46.507Z,49.50
2019-04-11T18:29:18.024Z,49.40
2019-04-11T18:31:52.033Z,49.70
2019-04-11T18:34:22.231Z,49.70
2019-04-11T18:36:52.424Z,50.00
2019-04-11T18:39:25.163Z,50.20
2019-04-11T18:41:57.662Z,50.30
2019-04-11T18:44:27.166Z,50.40
2019-04-11T18:46:57.744Z,50.50
2019-04-11T18:49:29.136Z,50.80
2019-04-11T18:52:01.542Z,50.70
2019-04-11T18:54:35.942Z,50.80
2019-04-11T18:57:24.461Z,50.80
2019-04-11T19:05:36.809Z,51.10
2019-04-11T19:22:40.890Z,51.70
2019-04-11T19:34:04.400Z,52.50
2019-04-11T19:36:42.378Z,52.70
2019-04-11T19:39:14.832Z,52.90
2019-04-11T19:41:48.649Z,53.10
2019-04-11T19:44:23.927Z,53.40
2019-04-11T19:46:56.513Z,53.50
2019-04-11T19:49:28.803Z,53.90
2019-04-11T19:52:00.651Z,53.90
2019-04-11T19:54:38.198Z,53.80
2019-04-11T19:57:09.997Z,53.80
2019-04-11T19:59:42.917Z,54.00
2019-04-11T20:02:17.230Z,54.10
2019-04-11T20:04:48.936Z,54.00
2019-04-11T20:07:20.824Z,54.00
2019-04-11T20:09:52.360Z,54.10
2019-04-11T20:12:27.779Z,54.40
2019-04-11T20:14:59.298Z,54.30
2019-04-11T20:17:43.466Z,54.40
2019-04-11T20:20:07.083Z,54.50
2019-04-11T20:22:39.782Z,54.50
2019-04-11T20:25:09.230Z,54.60
2019-04-11T20:27:39.354Z,54.60
2019-04-11T20:30:19.735Z,54.70
2019-04-11T20:32:52.005Z,54.70
2019-04-11T20:35:29.165Z,54.70
2019-04-11T20:38:00.742Z,54.90
2019-04-11T20:40:41.474Z,55.20
2019-04-11T20:43:16.543Z,55.20
2019-04-11T20:45:49.539Z,55.30
2019-04-11T20:48:22.166Z,55.50
2019-04-11T20:50:53.530Z,55.40
2019-04-11T20:56:23.591Z,55.40
2019-04-11T20:58:47.566Z,55.60
2019-04-11T21:01:18.566Z,55.70
2019-04-11T21:03:49.031Z,55.80
2019-04-11T21:06:18.988Z,56.00
2019-04-11T21:08:50.182Z,56.00
2019-04-11T21:11:25.400Z,56.30
2019-04-11T21:23:06.541Z,56.80
2019-04-11T21:28:47.639Z,56.90
2019-04-11T21:37:24.303Z,57.20
2019-04-11T21:40:05.221Z,57.20
2019-04-11T21:42:43.781Z,57.20
2019-04-11T21:51:12.908Z,57.20
2019-04-11T21:53:53.483Z,57.30
2019-04-11T21:56:32.462Z,57.20
2019-04-11T21:59:44.068Z,57.30
2019-04-11T22:08:27.107Z,57.50
2019-04-11T22:11:03.002Z,57.80
2019-04-11T22:13:33.428Z,58.40
2019-04-11T22:16:14.211Z,58.70
2019-04-11T22:18:53.447Z,58.70
2019-04-11T22:24:27.528Z,58.60
2019-04-11T22:27:05.053Z,58.60
2019-04-11T22:29:42.796Z,58.90
2019-04-11T22:32:20.571Z,58.90
2019-04-11T22:34:56.760Z,59.00
2019-04-11T22:37:41.809Z,59.30
2019-04-11T22:40:15.187Z,59.40
2019-04-11T22:42:49.238Z,59.30
2019-04-11T22:45:20.369Z,59.20
2019-04-11T22:48:00.511Z,59.20
2019-04-11T22:50:34.920Z,59.40
2019-04-11T22:53:20.182Z,59.70
2019-04-11T22:55:55.991Z,60.00
2019-04-11T22:58:27.665Z,60.50
2019-04-11T23:01:03.049Z,60.50
2019-04-11T23:03:38.824Z,61.00
2019-04-11T23:06:10.436Z,61.20
2019-04-11T23:08:40.468Z,61.50
2019-04-11T23:11:10.639Z,62.00
2019-04-11T23:13:40.537Z,62.00
2019-04-11T23:16:12.056Z,62.60
2019-04-11T23:18:44.208Z,62.80
2019-04-11T23:21:16.503Z,62.90
2019-04-11T23:23:47.230Z,62.80
2019-04-11T23:26:18.607Z,62.70
2019-04-11T23:28:48.618Z,62.60
2019-04-11T23:31:20.264Z,62.90
2019-04-11T23:33:52.019Z,63.30
2019-04-11T23:36:22.052Z,63.40
2019-04-11T23:38:52.977Z,63.90
2019-04-11T23:41:23.676Z,64.10
2019-04-11T23:43:54.239Z,64.10
2019-04-11T23:46:25.643Z,64.50
2019-04-11T23:48:57.026Z,64.70
2019-04-11T23:51:28.323Z,64.90
2019-04-11T23:53:59.766Z,65.10
2019-04-11T23:56:30.697Z,65.30
2019-04-11T23:59:02.158Z,65.20
